sensor_id;sensor_type;location;lat;lon;timestamp;temperature;humidity
15111;DHT22;7656;51.954;7.998;2023-02-04T00:01:24;7.80;99.90
15111;DHT22;7656;51.954;7.998;2023-02-04T00:05:45;7.90;99.90
15111;DHT22;7656;51.954;7.998;2023-02-04T00:10:07;7.90;99.90
15111;DHT22;7656;51.954;7.998;2023-02-04T00:14:29;7.80;99.90
15111;DHT22;7656;51.954;7.998;2023-02-04T00:18:50;7.80;99.90
15111;DHT22;7656;51.954;7.998;2023-02-04T00:23:11;7.80;99.90
15111;DHT22;7656;51.954;7.998;2023-02-04T00:27:33;7.80;99.90
15111;DHT22;7656;51.954;7.998;2023-02-04T00:31:55;7.70;99.90
15111;DHT22;7656;51.954;7.998;2023-02-04T00:36:16;7.90;99.90
15111;DHT22;7656;51.954;7.998;2023-02-04T00:40:38;8.00;99.90
15111;DHT22;7656;51.954;7.998;2023-02-04T00:44:59;7.90;99.90
15111;DHT22;7656;51.954;7.998;2023-02-04T00:49:20;7.70;99.90
15111;DHT22;7656;51.954;7.998;2023-02-04T00:53:41;7.70;99.90
15111;DHT22;7656;51.954;7.998;2023-02-04T00:58:02;7.70;99.90
15111;DHT22;7656;51.954;7.998;2023-02-04T01:02:23;8.00;99.90
15111;DHT22;7656;51.954;7.998;2023-02-04T01:06:45;8.00;99.90
15111;DHT22;7656;51.954;7.998;2023-02-04T01:11:06;8.00;99.90
15111;DHT22;7656;51.954;7.998;2023-02-04T01:15:27;8.20;99.90
15111;DHT22;7656;51.954;7.998;2023-02-04T01:19:49;8.30;99.90
15111;DHT22;7656;51.954;7.998;2023-02-04T01:24:10;8.40;99.90
15111;DHT22;7656;51.954;7.998;2023-02-04T01:28:51;8.30;99.90
15111;DHT22;7656;51.954;7.998;2023-02-04T01:33:12;8.30;99.90
15111;DHT22;7656;51.954;7.998;2023-02-04T01:37:33;8.30;99.90
15111;DHT22;7656;51.954;7.998;2023-02-04T01:41:54;8.40;99.90
15111;DHT22;7656;51.954;7.998;2023-02-04T01:46:15;8.40;99.90
15111;DHT22;7656;51.954;7.998;2023-02-04T01:50:37;8.40;99.90
15111;DHT22;7656;51.954;7.998;2023-02-04T01:54:58;8.30;99.90
15111;DHT22;7656;51.954;7.998;2023-02-04T01:59:19;8.20;99.90
15111;DHT22;7656;51.954;7.998;2023-02-04T02:03:41;8.00;99.90
15111;DHT22;7656;51.954;7.998;2023-02-04T02:08:04;7.80;99.90
15111;DHT22;7656;51.954;7.998;2023-02-04T02:12:25;7.90;99.90
15111;DHT22;7656;51.954;7.998;2023-02-04T02:16:46;8.10;99.90
15111;DHT22;7656;51.954;7.998;2023-02-04T02:21:09;8.20;99.90
15111;DHT22;7656;51.954;7.998;2023-02-04T02:25:32;8.30;99.90
15111;DHT22;7656;51.954;7.998;2023-02-04T02:29:54;8.30;99.90
15111;DHT22;7656;51.954;7.998;2023-02-04T02:34:15;8.20;99.90
15111;DHT22;7656;51.954;7.998;2023-02-04T02:38:37;8.30;99.90
15111;DHT22;7656;51.954;7.998;2023-02-04T02:42:58;8.30;99.90
15111;DHT22;7656;51.954;7.998;2023-02-04T02:47:20;8.30;99.90
15111;DHT22;7656;51.954;7.998;2023-02-04T02:51:43;8.30;99.90
15111;DHT22;7656;51.954;7.998;2023-02-04T02:56:04;8.20;99.90
15111;DHT22;7656;51.954;7.998;2023-02-04T03:00:28;8.10;99.90
15111;DHT22;7656;51.954;7.998;2023-02-04T03:04:54;8.10;99.90
15111;DHT22;7656;51.954;7.998;2023-02-04T03:09:19;8.10;99.90
15111;DHT22;7656;51.954;7.998;2023-02-04T03:13:41;8.00;99.90
15111;DHT22;7656;51.954;7.998;2023-02-04T03:18:03;8.00;99.90
15111;DHT22;7656;51.954;7.998;2023-02-04T03:22:24;8.20;99.90
15111;DHT22;7656;51.954;7.998;2023-02-04T03:26:45;8.00;99.90
15111;DHT22;7656;51.954;7.998;2023-02-04T03:31:06;8.00;99.90
15111;DHT22;7656;51.954;7.998;2023-02-04T03:35:28;7.90;99.90
15111;DHT22;7656;51.954;7.998;2023-02-04T03:39:49;7.70;99.90
15111;DHT22;7656;51.954;7.998;2023-02-04T03:44:10;7.60;99.90
15111;DHT22;7656;51.954;7.998;2023-02-04T03:48:31;7.60;99.90
15111;DHT22;7656;51.954;7.998;2023-02-04T03:52:52;7.60;99.90
15111;DHT22;7656;51.954;7.998;2023-02-04T03:57:13;7.50;99.90
15111;DHT22;7656;51.954;7.998;2023-02-04T04:01:35;7.70;99.90
15111;DHT22;7656;51.954;7.998;2023-02-04T04:05:56;7.80;99.90
15111;DHT22;7656;51.954;7.998;2023-02-04T04:10:17;7.70;99.90
15111;DHT22;7656;51.954;7.998;2023-02-04T04:14:38;7.70;99.90
15111;DHT22;7656;51.954;7.998;2023-02-04T04:18:59;7.70;99.90
15111;DHT22;7656;51.954;7.998;2023-02-04T04:23:21;7.50;99.90
15111;DHT22;7656;51.954;7.998;2023-02-04T04:27:42;7.50;99.90
15111;DHT22;7656;51.954;7.998;2023-02-04T04:32:03;7.70;99.90
15111;DHT22;7656;51.954;7.998;2023-02-04T04:36:24;7.90;99.90
15111;DHT22;7656;51.954;7.998;2023-02-04T04:40:45;7.90;99.90
15111;DHT22;7656;51.954;7.998;2023-02-04T04:45:08;7.90;99.90
15111;DHT22;7656;51.954;7.998;2023-02-04T04:49:30;7.90;99.90
15111;DHT22;7656;51.954;7.998;2023-02-04T04:53:51;7.90;99.90
15111;DHT22;7656;51.954;7.998;2023-02-04T04:58:12;7.90;99.90
15111;DHT22;7656;51.954;7.998;2023-02-04T05:02:33;7.80;99.90
15111;DHT22;7656;51.954;7.998;2023-02-04T05:06:54;7.80;99.90
15111;DHT22;7656;51.954;7.998;2023-02-04T05:11:16;7.70;99.90
15111;DHT22;7656;51.954;7.998;2023-02-04T05:15:37;7.70;99.90
15111;DHT22;7656;51.954;7.998;2023-02-04T05:19:58;7.60;99.90
15111;DHT22;7656;51.954;7.998;2023-02-04T05:24:19;7.60;99.90
15111;DHT22;7656;51.954;7.998;2023-02-04T05:28:40;7.60;99.90
15111;DHT22;7656;51.954;7.998;2023-02-04T05:33:01;7.50;99.90
15111;DHT22;7656;51.954;7.998;2023-02-04T05:37:23;7.50;99.90
15111;DHT22;7656;51.954;7.998;2023-02-04T05:41:44;7.40;99.90
15111;DHT22;7656;51.954;7.998;2023-02-04T05:46:05;7.50;99.90
15111;DHT22;7656;51.954;7.998;2023-02-04T05:50:26;7.60;99.90
15111;DHT22;7656;51.954;7.998;2023-02-04T05:55:02;7.50;99.90
15111;DHT22;7656;51.954;7.998;2023-02-04T05:59:23;7.50;99.90
15111;DHT22;7656;51.954;7.998;2023-02-04T06:03:45;7.50;99.90
15111;DHT22;7656;51.954;7.998;2023-02-04T06:08:06;7.50;99.90
15111;DHT22;7656;51.954;7.998;2023-02-04T06:12:27;7.40;99.90
15111;DHT22;7656;51.954;7.998;2023-02-04T06:16:48;7.30;99.90
15111;DHT22;7656;51.954;7.998;2023-02-04T06:21:09;7.30;99.90
15111;DHT22;7656;51.954;7.998;2023-02-04T06:25:30;7.30;99.90
15111;DHT22;7656;51.954;7.998;2023-02-04T06:29:52;7.40;99.90
15111;DHT22;7656;51.954;7.998;2023-02-04T06:34:13;7.20;99.90
15111;DHT22;7656;51.954;7.998;2023-02-04T06:38:35;7.20;99.90
15111;DHT22;7656;51.954;7.998;2023-02-04T06:42:56;7.10;99.90
15111;DHT22;7656;51.954;7.998;2023-02-04T06:47:18;7.20;99.90
15111;DHT22;7656;51.954;7.998;2023-02-04T06:51:39;7.20;99.90
15111;DHT22;7656;51.954;7.998;2023-02-04T06:56:00;7.10;99.90
15111;DHT22;7656;51.954;7.998;2023-02-04T07:00:21;7.00;99.90
15111;DHT22;7656;51.954;7.998;2023-02-04T07:04:42;6.80;99.90
15111;DHT22;7656;51.954;7.998;2023-02-04T07:09:03;6.90;99.90
15111;DHT22;7656;51.954;7.998;2023-02-04T07:13:24;7.00;99.90
15111;DHT22;7656;51.954;7.998;2023-02-04T07:17:45;7.10;99.90
15111;DHT22;7656;51.954;7.998;2023-02-04T07:22:06;7.10;99.90
15111;DHT22;7656;51.954;7.998;2023-02-04T07:26:27;7.10;99.90
15111;DHT22;7656;51.954;7.998;2023-02-04T07:30:48;7.20;99.90
15111;DHT22;7656;51.954;7.998;2023-02-04T07:35:09;7.20;99.90
15111;DHT22;7656;51.954;7.998;2023-02-04T07:39:32;7.10;99.90
15111;DHT22;7656;51.954;7.998;2023-02-04T07:43:53;7.30;99.90
15111;DHT22;7656;51.954;7.998;2023-02-04T07:48:14;7.40;99.90
15111;DHT22;7656;51.954;7.998;2023-02-04T07:52:35;7.40;99.90
15111;DHT22;7656;51.954;7.998;2023-02-04T07:56:56;7.60;99.90
15111;DHT22;7656;51.954;7.998;2023-02-04T08:01:17;7.70;99.90
15111;DHT22;7656;51.954;7.998;2023-02-04T08:05:38;7.90;99.90
15111;DHT22;7656;51.954;7.998;2023-02-04T08:09:59;8.00;99.90
15111;DHT22;7656;51.954;7.998;2023-02-04T08:14:20;8.00;99.90
15111;DHT22;7656;51.954;7.998;2023-02-04T08:18:41;7.70;99.90
15111;DHT22;7656;51.954;7.998;2023-02-04T08:23:02;8.00;99.90
15111;DHT22;7656;51.954;7.998;2023-02-04T08:27:23;8.30;99.90
15111;DHT22;7656;51.954;7.998;2023-02-04T08:31:44;8.50;99.90
15111;DHT22;7656;51.954;7.998;2023-02-04T08:36:07;8.90;99.90
15111;DHT22;7656;51.954;7.998;2023-02-04T08:40:29;9.30;99.90
15111;DHT22;7656;51.954;7.998;2023-02-04T08:44:50;9.40;99.90
15111;DHT22;7656;51.954;7.998;2023-02-04T08:49:11;9.40;99.90
15111;DHT22;7656;51.954;7.998;2023-02-04T08:53:32;9.70;99.90
15111;DHT22;7656;51.954;7.998;2023-02-04T08:57:53;9.90;99.90
15111;DHT22;7656;51.954;7.998;2023-02-04T09:02:14;10.10;99.90
15111;DHT22;7656;51.954;7.998;2023-02-04T09:10:56;14.20;99.90
15111;DHT22;7656;51.954;7.998;2023-02-04T09:15:17;14.20;99.90
15111;DHT22;7656;51.954;7.998;2023-02-04T09:19:38;14.10;99.90
15111;DHT22;7656;51.954;7.998;2023-02-04T09:23:59;13.60;99.90
15111;DHT22;7656;51.954;7.998;2023-02-04T09:28:20;12.70;99.90
15111;DHT22;7656;51.954;7.998;2023-02-04T09:32:41;11.80;99.90
15111;DHT22;7656;51.954;7.998;2023-02-04T09:37:02;11.90;99.90
15111;DHT22;7656;51.954;7.998;2023-02-04T09:41:24;10.60;99.90
15111;DHT22;7656;51.954;7.998;2023-02-04T09:45:46;9.90;99.90
15111;DHT22;7656;51.954;7.998;2023-02-04T09:50:14;8.90;99.90
15111;DHT22;7656;51.954;7.998;2023-02-04T09:54:35;8.30;99.90
15111;DHT22;7656;51.954;7.998;2023-02-04T09:58:58;8.70;99.90
15111;DHT22;7656;51.954;7.998;2023-02-04T10:03:19;9.10;99.90
15111;DHT22;7656;51.954;7.998;2023-02-04T10:07:43;10.10;99.90
15111;DHT22;7656;51.954;7.998;2023-02-04T10:12:05;10.30;99.90
15111;DHT22;7656;51.954;7.998;2023-02-04T10:16:32;11.10;99.90
15111;DHT22;7656;51.954;7.998;2023-02-04T10:29:56;15.10;99.90
15111;DHT22;7656;51.954;7.998;2023-02-04T10:34:33;15.30;99.90
15111;DHT22;7656;51.954;7.998;2023-02-04T10:39:03;14.70;99.90
15111;DHT22;7656;51.954;7.998;2023-02-04T10:43:25;13.30;99.90
15111;DHT22;7656;51.954;7.998;2023-02-04T10:47:50;12.30;99.90
15111;DHT22;7656;51.954;7.998;2023-02-04T10:52:15;10.80;99.90
15111;DHT22;7656;51.954;7.998;2023-02-04T10:56:38;10.60;99.90
15111;DHT22;7656;51.954;7.998;2023-02-04T11:01:00;11.00;99.90
15111;DHT22;7656;51.954;7.998;2023-02-04T11:05:23;12.80;99.90
15111;DHT22;7656;51.954;7.998;2023-02-04T11:09:49;12.20;99.90
15111;DHT22;7656;51.954;7.998;2023-02-04T11:14:27;11.30;99.90
15111;DHT22;7656;51.954;7.998;2023-02-04T11:18:59;11.00;99.90
15111;DHT22;7656;51.954;7.998;2023-02-04T11:27:50;11.10;99.90
15111;DHT22;7656;51.954;7.998;2023-02-04T11:32:31;11.70;99.90
15111;DHT22;7656;51.954;7.998;2023-02-04T11:37:05;11.40;99.90
15111;DHT22;7656;51.954;7.998;2023-02-04T11:41:33;11.90;99.90
15111;DHT22;7656;51.954;7.998;2023-02-04T11:46:14;11.20;99.90
15111;DHT22;7656;51.954;7.998;2023-02-04T11:50:36;10.70;99.90
15111;DHT22;7656;51.954;7.998;2023-02-04T11:54:59;10.60;99.90
15111;DHT22;7656;51.954;7.998;2023-02-04T11:59:20;10.30;99.90
15111;DHT22;7656;51.954;7.998;2023-02-04T12:03:46;10.30;99.90
15111;DHT22;7656;51.954;7.998;2023-02-04T12:12:53;15.00;99.90
15111;DHT22;7656;51.954;7.998;2023-02-04T12:17:19;16.50;99.90
15111;DHT22;7656;51.954;7.998;2023-02-04T12:21:40;16.60;99.90
15111;DHT22;7656;51.954;7.998;2023-02-04T12:26:02;14.80;99.90
15111;DHT22;7656;51.954;7.998;2023-02-04T12:30:24;14.60;99.90
15111;DHT22;7656;51.954;7.998;2023-02-04T12:34:46;15.20;99.90
15111;DHT22;7656;51.954;7.998;2023-02-04T12:39:07;14.10;99.90
15111;DHT22;7656;51.954;7.998;2023-02-04T12:43:28;14.10;99.90
15111;DHT22;7656;51.954;7.998;2023-02-04T13:05:16;20.80;99.90
15111;DHT22;7656;51.954;7.998;2023-02-04T13:09:37;19.80;99.90
15111;DHT22;7656;51.954;7.998;2023-02-04T13:13:58;19.90;99.90
15111;DHT22;7656;51.954;7.998;2023-02-04T13:18:19;20.70;99.90
15111;DHT22;7656;51.954;7.998;2023-02-04T13:22:40;19.70;99.90
15111;DHT22;7656;51.954;7.998;2023-02-04T13:57:33;18.20;98.20
15111;DHT22;7656;51.954;7.998;2023-02-04T14:01:54;17.10;98.20
15111;DHT22;7656;51.954;7.998;2023-02-04T14:06:15;15.70;99.90
15111;DHT22;7656;51.954;7.998;2023-02-04T14:10:40;14.50;99.90
15111;DHT22;7656;51.954;7.998;2023-02-04T14:15:01;12.80;99.90
15111;DHT22;7656;51.954;7.998;2023-02-04T14:19:24;12.00;99.90
15111;DHT22;7656;51.954;7.998;2023-02-04T14:23:47;11.10;99.90
15111;DHT22;7656;51.954;7.998;2023-02-04T14:28:08;10.60;99.90
15111;DHT22;7656;51.954;7.998;2023-02-04T14:32:29;10.00;99.90
15111;DHT22;7656;51.954;7.998;2023-02-04T14:36:50;9.80;99.90
15111;DHT22;7656;51.954;7.998;2023-02-04T14:41:11;9.80;99.90
15111;DHT22;7656;51.954;7.998;2023-02-04T14:45:37;9.50;99.90
15111;DHT22;7656;51.954;7.998;2023-02-04T14:49:58;9.20;99.90
15111;DHT22;7656;51.954;7.998;2023-02-04T14:54:19;9.40;99.90
15111;DHT22;7656;51.954;7.998;2023-02-04T14:58:40;9.40;99.90
15111;DHT22;7656;51.954;7.998;2023-02-04T15:03:01;8.70;99.90
15111;DHT22;7656;51.954;7.998;2023-02-04T15:07:24;8.40;99.90
15111;DHT22;7656;51.954;7.998;2023-02-04T15:11:45;8.50;99.90
15111;DHT22;7656;51.954;7.998;2023-02-04T15:16:06;8.40;99.90
15111;DHT22;7656;51.954;7.998;2023-02-04T15:20:27;8.40;99.90
15111;DHT22;7656;51.954;7.998;2023-02-04T15:24:48;8.00;99.90
15111;DHT22;7656;51.954;7.998;2023-02-04T15:29:09;8.20;99.90
15111;DHT22;7656;51.954;7.998;2023-02-04T15:33:30;8.50;99.90
15111;DHT22;7656;51.954;7.998;2023-02-04T15:37:51;8.80;99.90
15111;DHT22;7656;51.954;7.998;2023-02-04T15:42:12;8.60;99.90
15111;DHT22;7656;51.954;7.998;2023-02-04T15:46:34;8.50;99.90
15111;DHT22;7656;51.954;7.998;2023-02-04T15:50:55;8.00;99.90
15111;DHT22;7656;51.954;7.998;2023-02-04T15:55:16;8.00;99.90
15111;DHT22;7656;51.954;7.998;2023-02-04T15:59:37;8.40;99.90
15111;DHT22;7656;51.954;7.998;2023-02-04T16:03:58;8.00;99.90
15111;DHT22;7656;51.954;7.998;2023-02-04T16:08:20;8.30;99.90
15111;DHT22;7656;51.954;7.998;2023-02-04T16:12:41;8.20;99.90
15111;DHT22;7656;51.954;7.998;2023-02-04T16:17:03;8.30;99.90
15111;DHT22;7656;51.954;7.998;2023-02-04T16:21:26;8.20;99.90
15111;DHT22;7656;51.954;7.998;2023-02-04T16:25:47;8.30;99.90
15111;DHT22;7656;51.954;7.998;2023-02-04T16:30:09;8.30;99.90
15111;DHT22;7656;51.954;7.998;2023-02-04T16:34:31;8.20;99.90
15111;DHT22;7656;51.954;7.998;2023-02-04T16:38:52;8.30;99.90
15111;DHT22;7656;51.954;7.998;2023-02-04T16:43:13;7.80;99.90
15111;DHT22;7656;51.954;7.998;2023-02-04T16:47:34;7.80;99.90
15111;DHT22;7656;51.954;7.998;2023-02-04T16:51:55;7.70;99.90
15111;DHT22;7656;51.954;7.998;2023-02-04T16:56:16;7.90;99.90
15111;DHT22;7656;51.954;7.998;2023-02-04T17:00:38;7.70;99.90
15111;DHT22;7656;51.954;7.998;2023-02-04T17:05:02;7.50;99.90
15111;DHT22;7656;51.954;7.998;2023-02-04T17:09:24;7.40;99.90
15111;DHT22;7656;51.954;7.998;2023-02-04T17:13:45;7.20;99.90
15111;DHT22;7656;51.954;7.998;2023-02-04T17:18:06;7.30;99.90
15111;DHT22;7656;51.954;7.998;2023-02-04T17:22:27;7.40;99.90
15111;DHT22;7656;51.954;7.998;2023-02-04T17:26:48;7.40;99.90
15111;DHT22;7656;51.954;7.998;2023-02-04T17:31:09;7.30;99.90
15111;DHT22;7656;51.954;7.998;2023-02-04T17:35:31;7.40;99.90
15111;DHT22;7656;51.954;7.998;2023-02-04T17:39:52;7.30;99.90
15111;DHT22;7656;51.954;7.998;2023-02-04T17:44:13;7.10;99.90
15111;DHT22;7656;51.954;7.998;2023-02-04T17:48:39;7.10;99.90
15111;DHT22;7656;51.954;7.998;2023-02-04T17:53:01;7.00;99.90
15111;DHT22;7656;51.954;7.998;2023-02-04T17:57:23;7.00;99.90
15111;DHT22;7656;51.954;7.998;2023-02-04T18:01:44;7.00;99.90
15111;DHT22;7656;51.954;7.998;2023-02-04T18:06:31;7.00;99.90
15111;DHT22;7656;51.954;7.998;2023-02-04T18:10:54;7.10;99.90
15111;DHT22;7656;51.954;7.998;2023-02-04T18:15:25;7.00;99.90
15111;DHT22;7656;51.954;7.998;2023-02-04T18:19:50;6.80;99.90
15111;DHT22;7656;51.954;7.998;2023-02-04T18:24:27;6.60;99.90
15111;DHT22;7656;51.954;7.998;2023-02-04T18:28:57;6.60;99.90
15111;DHT22;7656;51.954;7.998;2023-02-04T18:33:26;6.40;99.90
15111;DHT22;7656;51.954;7.998;2023-02-04T18:37:51;6.30;99.90
15111;DHT22;7656;51.954;7.998;2023-02-04T18:42:13;6.30;99.90
15111;DHT22;7656;51.954;7.998;2023-02-04T18:46:45;6.40;99.90
15111;DHT22;7656;51.954;7.998;2023-02-04T18:51:21;6.40;99.90
15111;DHT22;7656;51.954;7.998;2023-02-04T18:55:47;6.50;99.90
15111;DHT22;7656;51.954;7.998;2023-02-04T19:04:32;6.50;99.90
15111;DHT22;7656;51.954;7.998;2023-02-04T19:13:40;6.50;99.90
15111;DHT22;7656;51.954;7.998;2023-02-04T19:18:40;6.30;99.90
15111;DHT22;7656;51.954;7.998;2023-02-04T19:22:57;6.20;99.90
15111;DHT22;7656;51.954;7.998;2023-02-04T19:31:53;6.00;99.90
15111;DHT22;7656;51.954;7.998;2023-02-04T19:36:35;5.90;99.90
15111;DHT22;7656;51.954;7.998;2023-02-04T19:40:57;5.70;99.90
15111;DHT22;7656;51.954;7.998;2023-02-04T19:45:21;5.50;99.90
15111;DHT22;7656;51.954;7.998;2023-02-04T19:49:43;5.60;99.90
15111;DHT22;7656;51.954;7.998;2023-02-04T19:54:16;5.50;99.90
15111;DHT22;7656;51.954;7.998;2023-02-04T19:58:41;5.40;99.90
15111;DHT22;7656;51.954;7.998;2023-02-04T20:07:59;5.30;99.90
15111;DHT22;7656;51.954;7.998;2023-02-04T20:12:28;5.10;99.90
15111;DHT22;7656;51.954;7.998;2023-02-04T20:16:57;5.00;99.90
15111;DHT22;7656;51.954;7.998;2023-02-04T20:21:20;5.00;99.90
15111;DHT22;7656;51.954;7.998;2023-02-04T20:34:28;4.80;99.90
15111;DHT22;7656;51.954;7.998;2023-02-04T20:43:33;4.60;99.90
15111;DHT22;7656;51.954;7.998;2023-02-04T20:57:13;4.50;99.90
15111;DHT22;7656;51.954;7.998;2023-02-04T21:01:39;4.50;99.90
15111;DHT22;7656;51.954;7.998;2023-02-04T21:06:20;4.40;99.90
15111;DHT22;7656;51.954;7.998;2023-02-04T21:10:45;4.40;99.90
15111;DHT22;7656;51.954;7.998;2023-02-04T21:15:07;4.20;99.90
15111;DHT22;7656;51.954;7.998;2023-02-04T21:19:28;3.90;99.90
15111;DHT22;7656;51.954;7.998;2023-02-04T21:23:50;3.70;99.90
15111;DHT22;7656;51.954;7.998;2023-02-04T21:28:11;3.60;99.90
15111;DHT22;7656;51.954;7.998;2023-02-04T21:32:32;3.60;99.90
15111;DHT22;7656;51.954;7.998;2023-02-04T21:36:53;3.70;99.90
15111;DHT22;7656;51.954;7.998;2023-02-04T21:41:14;3.80;99.90
15111;DHT22;7656;51.954;7.998;2023-02-04T21:45:36;3.80;99.90
15111;DHT22;7656;51.954;7.998;2023-02-04T21:49:59;3.70;99.90
15111;DHT22;7656;51.954;7.998;2023-02-04T21:54:20;3.70;99.90
15111;DHT22;7656;51.954;7.998;2023-02-04T21:58:41;3.80;99.90
15111;DHT22;7656;51.954;7.998;2023-02-04T22:03:02;3.70;99.90
15111;DHT22;7656;51.954;7.998;2023-02-04T22:07:23;3.70;99.90
15111;DHT22;7656;51.954;7.998;2023-02-04T22:11:44;3.70;99.90
15111;DHT22;7656;51.954;7.998;2023-02-04T22:16:08;3.50;99.90
15111;DHT22;7656;51.954;7.998;2023-02-04T22:20:29;3.10;99.90
15111;DHT22;7656;51.954;7.998;2023-02-04T22:24:50;3.10;99.90
15111;DHT22;7656;51.954;7.998;2023-02-04T22:29:11;3.10;99.90
15111;DHT22;7656;51.954;7.998;2023-02-04T22:33:32;3.00;99.90
15111;DHT22;7656;51.954;7.998;2023-02-04T22:37:53;3.00;99.90
15111;DHT22;7656;51.954;7.998;2023-02-04T22:42:14;3.10;99.90
15111;DHT22;7656;51.954;7.998;2023-02-04T22:46:35;3.10;99.90
15111;DHT22;7656;51.954;7.998;2023-02-04T22:50:56;3.00;99.90
15111;DHT22;7656;51.954;7.998;2023-02-04T22:55:18;3.10;99.90
15111;DHT22;7656;51.954;7.998;2023-02-04T22:59:39;3.00;99.90
15111;DHT22;7656;51.954;7.998;2023-02-04T23:04:00;3.00;99.90
15111;DHT22;7656;51.954;7.998;2023-02-04T23:08:21;3.00;99.90
15111;DHT22;7656;51.954;7.998;2023-02-04T23:12:42;2.80;99.90
15111;DHT22;7656;51.954;7.998;2023-02-04T23:17:03;2.80;99.90
15111;DHT22;7656;51.954;7.998;2023-02-04T23:21:24;3.00;99.90
15111;DHT22;7656;51.954;7.998;2023-02-04T23:25:46;3.00;99.90
15111;DHT22;7656;51.954;7.998;2023-02-04T23:30:08;2.90;99.90
15111;DHT22;7656;51.954;7.998;2023-02-04T23:34:30;2.90;99.90
15111;DHT22;7656;51.954;7.998;2023-02-04T23:38:51;2.70;99.90
15111;DHT22;7656;51.954;7.998;2023-02-04T23:43:13;2.80;99.90
15111;DHT22;7656;51.954;7.998;2023-02-04T23:47:34;2.80;99.90
15111;DHT22;7656;51.954;7.998;2023-02-04T23:51:55;2.90;99.90
15111;DHT22;7656;51.954;7.998;2023-02-04T23:56:16;3.00;99.90
